XNO21K EGGW-EGAC
Flight info
| Callsign | XNO21K |
|---|---|
| Flight time | 0h 48m |
| Altitude | 32000 |
| Route | OLNEY T420 TNT UL28 RODOL UM65 TENSO L603 BELOX DCT REMSI DCT NINEB M148 MAGEE |
| Aircraft | A320/M-SDE3FGHIRWY/LB1 |
Departure
| Time | 2026-04-25 17:03 |
|---|---|
| Airport | London Luton Airport (EGGW) |
Arrival
| Time | 2026-04-25 17:51 |
|---|---|
| Airport | George Best Belfast City Airport (EGAC) |
| Time | Latitude | Longitude | Altitude | Speed | Heading |
|---|---|---|---|---|---|
| 2026-04-25 16:27 | 51.88153 | -0.37563 | 517 ft | 0 kts | 202° |
| 2026-04-25 16:48 | 51.88158 | -0.37560 | 516 ft | 4 kts | 202° |
| 2026-04-25 16:49 | 51.88181 | -0.37541 | 516 ft | 4 kts | 224° |
| 2026-04-25 16:49 | 51.88195 | -0.37518 | 516 ft | 4 kts | 198° |
| 2026-04-25 16:49 | 51.88206 | -0.37525 | 516 ft | 4 kts | 111° |
| 2026-04-25 16:49 | 51.88213 | -0.37562 | 516 ft | 1 kts | 104° |
| 2026-04-25 16:50 | 51.88213 | -0.37563 | 516 ft | 0 kts | 104° |
| 2026-04-25 16:52 | 51.88207 | -0.37526 | 516 ft | 9 kts | 104° |
| 2026-04-25 16:52 | 51.88219 | -0.37381 | 516 ft | 15 kts | 72° |
| 2026-04-25 16:53 | 51.88091 | -0.37172 | 509 ft | 20 kts | 162° |
| 2026-04-25 16:53 | 51.87949 | -0.37096 | 509 ft | 22 kts | 161° |
| 2026-04-25 16:53 | 51.87805 | -0.37018 | 515 ft | 20 kts | 161° |
| 2026-04-25 16:54 | 51.87682 | -0.36952 | 523 ft | 17 kts | 161° |
| 2026-04-25 16:54 | 51.87659 | -0.36798 | 524 ft | 17 kts | 75° |
| 2026-04-25 16:54 | 51.87694 | -0.36594 | 521 ft | 20 kts | 74° |
| 2026-04-25 16:54 | 51.87735 | -0.36360 | 518 ft | 23 kts | 75° |
| 2026-04-25 16:55 | 51.87772 | -0.36148 | 518 ft | 18 kts | 74° |
| 2026-04-25 16:55 | 51.87754 | -0.35968 | 516 ft | 15 kts | 145° |
| 2026-04-25 16:55 | 51.87743 | -0.35958 | 516 ft | 0 kts | 151° |
| 2026-04-25 16:57 | 51.87720 | -0.35942 | 516 ft | 13 kts | 160° |
| 2026-04-25 16:57 | 51.87685 | -0.35923 | 516 ft | 18 kts | 160° |
| 2026-04-25 16:57 | 51.87682 | -0.35581 | 514 ft | 21 kts | 74° |
| 2026-04-25 16:57 | 51.87733 | -0.35426 | 516 ft | 15 kts | 57° |
| 2026-04-25 16:58 | 51.87700 | -0.35399 | 518 ft | 10 kts | 260° |
| 2026-04-25 16:58 | 51.87690 | -0.35517 | 516 ft | 11 kts | 256° |
| 2026-04-25 16:58 | 51.87670 | -0.35645 | 513 ft | 12 kts | 255° |
| 2026-04-25 16:58 | 51.87650 | -0.35768 | 514 ft | 11 kts | 255° |
| 2026-04-25 16:59 | 51.87678 | -0.35922 | 516 ft | 22 kts | 343° |
| 2026-04-25 16:59 | 51.87773 | -0.36106 | 518 ft | 24 kts | 266° |
| 2026-04-25 16:59 | 51.87732 | -0.36376 | 518 ft | 25 kts | 255° |
| 2026-04-25 16:59 | 51.87685 | -0.36652 | 521 ft | 26 kts | 253° |
| 2026-04-25 17:00 | 51.87637 | -0.36925 | 526 ft | 25 kts | 254° |
| 2026-04-25 17:00 | 51.87588 | -0.37201 | 522 ft | 22 kts | 254° |
| 2026-04-25 17:00 | 51.87556 | -0.37435 | 522 ft | 22 kts | 224° |
| 2026-04-25 17:00 | 51.87483 | -0.37653 | 523 ft | 23 kts | 252° |
| 2026-04-25 17:01 | 51.87441 | -0.37902 | 523 ft | 17 kts | 255° |
| 2026-04-25 17:01 | 51.87378 | -0.38055 | 523 ft | 17 kts | 214° |
| 2026-04-25 17:01 | 51.87273 | -0.38110 | 523 ft | 14 kts | 166° |
| 2026-04-25 17:01 | 51.87265 | -0.37986 | 524 ft | 7 kts | 76° |
| 2026-04-25 17:02 | 51.87268 | -0.37965 | 524 ft | 16 kts | 76° |
| 2026-04-25 17:02 | 51.87377 | -0.37347 | 522 ft | 93 kts | 75° |
| 2026-04-25 17:02 | 51.87606 | -0.36018 | 516 ft | 149 kts | 74° |
| 2026-04-25 17:02 | 51.87865 | -0.34277 | 878 ft | 166 kts | 77° |
| 2026-04-25 17:03 | 51.88157 | -0.32482 | 1620 ft | 164 kts | 73° |
| 2026-04-25 17:03 | 51.88482 | -0.30727 | 2367 ft | 163 kts | 72° |
| 2026-04-25 17:03 | 51.88828 | -0.28884 | 2774 ft | 181 kts | 72° |
| 2026-04-25 17:03 | 51.89484 | -0.27043 | 3032 ft | 203 kts | 37° |
| 2026-04-25 17:04 | 51.90864 | -0.26375 | 3352 ft | 221 kts | 354° |
| 2026-04-25 17:04 | 51.92287 | -0.27487 | 3802 ft | 240 kts | 312° |
| 2026-04-25 17:04 | 51.92999 | -0.29943 | 4465 ft | 253 kts | 281° |
| 2026-04-25 17:04 | 51.93087 | -0.32875 | 5143 ft | 266 kts | 268° |
| 2026-04-25 17:05 | 51.92940 | -0.35907 | 5777 ft | 273 kts | 265° |
| 2026-04-25 17:05 | 51.93829 | -0.41638 | 6898 ft | 272 kts | 310° |
| 2026-04-25 17:05 | 51.95077 | -0.43879 | 7796 ft | 274 kts | 314° |
| 2026-04-25 17:06 | 51.96425 | -0.46151 | 8693 ft | 277 kts | 314° |
| 2026-04-25 17:06 | 51.97785 | -0.48397 | 9562 ft | 281 kts | 314° |
| 2026-04-25 17:06 | 51.99166 | -0.50673 | 10372 ft | 286 kts | 314° |
| 2026-04-25 17:06 | 52.00618 | -0.53070 | 10681 ft | 310 kts | 314° |
| 2026-04-25 17:07 | 52.02181 | -0.55666 | 10926 ft | 333 kts | 314° |
| 2026-04-25 17:07 | 52.03852 | -0.58453 | 11143 ft | 354 kts | 314° |
| 2026-04-25 17:07 | 52.05597 | -0.61363 | 11703 ft | 363 kts | 314° |
| 2026-04-25 17:07 | 52.07366 | -0.64315 | 12427 ft | 366 kts | 314° |
| 2026-04-25 17:08 | 52.09147 | -0.67294 | 13167 ft | 369 kts | 314° |
| 2026-04-25 17:08 | 52.10919 | -0.70263 | 13890 ft | 372 kts | 314° |
| 2026-04-25 17:08 | 52.12798 | -0.73178 | 14514 ft | 376 kts | 320° |
| 2026-04-25 17:08 | 52.14968 | -0.75583 | 15116 ft | 380 kts | 328° |
| 2026-04-25 17:09 | 52.17236 | -0.77820 | 15723 ft | 383 kts | 328° |
| 2026-04-25 17:09 | 52.19524 | -0.80077 | 16311 ft | 386 kts | 328° |
| 2026-04-25 17:09 | 52.21829 | -0.82354 | 16888 ft | 389 kts | 328° |
| 2026-04-25 17:09 | 52.24153 | -0.84653 | 17459 ft | 392 kts | 328° |
| 2026-04-25 17:10 | 52.26498 | -0.86975 | 18028 ft | 396 kts | 328° |
| 2026-04-25 17:10 | 52.28860 | -0.89319 | 18578 ft | 399 kts | 327° |
| 2026-04-25 17:10 | 52.31237 | -0.91684 | 19067 ft | 401 kts | 327° |
| 2026-04-25 17:10 | 52.33627 | -0.94066 | 19560 ft | 404 kts | 327° |
| 2026-04-25 17:11 | 52.36035 | -0.96469 | 20036 ft | 407 kts | 327° |
| 2026-04-25 17:11 | 52.38459 | -0.98891 | 20500 ft | 409 kts | 327° |
| 2026-04-25 17:11 | 52.40895 | -1.01326 | 20968 ft | 412 kts | 327° |
| 2026-04-25 17:11 | 52.43349 | -1.03783 | 21430 ft | 414 kts | 327° |
| 2026-04-25 17:12 | 52.45810 | -1.06255 | 21900 ft | 416 kts | 327° |
| 2026-04-25 17:12 | 52.48286 | -1.08743 | 22342 ft | 418 kts | 327° |
| 2026-04-25 17:12 | 52.50773 | -1.11238 | 22799 ft | 421 kts | 327° |
| 2026-04-25 17:12 | 52.53277 | -1.13751 | 23222 ft | 423 kts | 327° |
| 2026-04-25 17:13 | 52.55797 | -1.16288 | 23634 ft | 426 kts | 327° |
| 2026-04-25 17:13 | 52.56618 | -1.17114 | 23764 ft | 427 kts | 327° |
| 2026-04-25 17:13 | 52.60880 | -1.21411 | 24347 ft | 431 kts | 327° |
| 2026-04-25 17:13 | 52.63439 | -1.24001 | 24688 ft | 433 kts | 327° |
| 2026-04-25 17:14 | 52.65977 | -1.26575 | 25019 ft | 435 kts | 327° |
| 2026-04-25 17:14 | 52.68561 | -1.29200 | 25343 ft | 438 kts | 327° |
| 2026-04-25 17:14 | 52.71161 | -1.31840 | 25667 ft | 440 kts | 327° |
| 2026-04-25 17:14 | 52.73808 | -1.34531 | 25991 ft | 442 kts | 327° |
| 2026-04-25 17:15 | 52.76433 | -1.37205 | 26280 ft | 445 kts | 327° |
| 2026-04-25 17:15 | 52.79077 | -1.39906 | 26516 ft | 448 kts | 327° |
| 2026-04-25 17:15 | 52.81700 | -1.42592 | 26785 ft | 451 kts | 327° |
| 2026-04-25 17:15 | 52.84371 | -1.45330 | 27071 ft | 453 kts | 327° |
| 2026-04-25 17:16 | 52.87056 | -1.48083 | 27359 ft | 455 kts | 327° |
| 2026-04-25 17:16 | 52.89755 | -1.50850 | 27635 ft | 457 kts | 327° |
| 2026-04-25 17:16 | 52.92458 | -1.53626 | 28044 ft | 455 kts | 327° |
| 2026-04-25 17:16 | 52.95143 | -1.56384 | 28534 ft | 453 kts | 327° |
| 2026-04-25 17:17 | 52.97818 | -1.59137 | 28960 ft | 452 kts | 327° |
| 2026-04-25 17:17 | 53.00487 | -1.61886 | 29366 ft | 452 kts | 327° |
| 2026-04-25 17:17 | 53.03157 | -1.64645 | 29708 ft | 453 kts | 327° |
| 2026-04-25 17:17 | 53.05831 | -1.67414 | 30067 ft | 453 kts | 327° |
| 2026-04-25 17:18 | 53.08506 | -1.70189 | 30433 ft | 453 kts | 327° |
| 2026-04-25 17:18 | 53.11172 | -1.72967 | 30764 ft | 452 kts | 327° |
| 2026-04-25 17:18 | 53.13495 | -1.75390 | 31051 ft | 452 kts | 327° |
| 2026-04-25 17:18 | 53.16158 | -1.78167 | 31386 ft | 452 kts | 327° |
| 2026-04-25 17:19 | 53.18817 | -1.80947 | 31709 ft | 451 kts | 327° |
| 2026-04-25 17:19 | 53.21472 | -1.83732 | 32049 ft | 451 kts | 327° |
| 2026-04-25 17:19 | 53.24134 | -1.86522 | 32180 ft | 453 kts | 327° |
| 2026-04-25 17:19 | 53.26838 | -1.89242 | 32193 ft | 455 kts | 328° |
| 2026-04-25 17:20 | 53.32365 | -1.94448 | 32193 ft | 457 kts | 330° |
| 2026-04-25 17:20 | 53.36989 | -1.98713 | 32193 ft | 456 kts | 329° |
| 2026-04-25 17:21 | 53.42531 | -2.03904 | 32194 ft | 456 kts | 329° |
| 2026-04-25 17:21 | 53.48045 | -2.09166 | 32196 ft | 455 kts | 329° |
| 2026-04-25 17:22 | 53.50765 | -2.11782 | 32193 ft | 442 kts | 329° |
| 2026-04-25 17:22 | 53.52505 | -2.13459 | 32194 ft | 430 kts | 329° |
| 2026-04-25 17:22 | 53.55886 | -2.16745 | 32195 ft | 412 kts | 326° |
| 2026-04-25 17:22 | 53.58137 | -2.19651 | 32195 ft | 405 kts | 315° |
| 2026-04-25 17:23 | 53.61465 | -2.27164 | 32196 ft | 401 kts | 295° |
| 2026-04-25 17:23 | 53.63537 | -2.35863 | 32196 ft | 400 kts | 290° |
| 2026-04-25 17:24 | 53.65527 | -2.44559 | 32195 ft | 400 kts | 290° |
| 2026-04-25 17:24 | 53.67525 | -2.53316 | 32197 ft | 400 kts | 290° |
| 2026-04-25 17:25 | 53.69458 | -2.61835 | 32196 ft | 399 kts | 290° |
| 2026-04-25 17:25 | 53.71433 | -2.70576 | 32217 ft | 398 kts | 290° |
| 2026-04-25 17:26 | 53.73403 | -2.79306 | 32206 ft | 398 kts | 290° |
| 2026-04-25 17:26 | 53.75362 | -2.88041 | 32198 ft | 398 kts | 290° |
| 2026-04-25 17:27 | 53.77311 | -2.96787 | 32211 ft | 398 kts | 290° |
| 2026-04-25 17:27 | 53.78925 | -3.04064 | 32210 ft | 398 kts | 290° |
| 2026-04-25 17:28 | 53.81198 | -3.14297 | 32210 ft | 397 kts | 289° |
| 2026-04-25 17:28 | 53.83130 | -3.23046 | 32220 ft | 396 kts | 289° |
| 2026-04-25 17:29 | 53.85047 | -3.31780 | 32220 ft | 395 kts | 289° |
| 2026-04-25 17:29 | 53.86950 | -3.40505 | 32216 ft | 394 kts | 289° |
| 2026-04-25 17:30 | 53.88845 | -3.49222 | 32213 ft | 394 kts | 289° |
| 2026-04-25 17:30 | 53.90742 | -3.57932 | 32208 ft | 394 kts | 289° |
| 2026-04-25 17:31 | 53.92617 | -3.66588 | 32208 ft | 393 kts | 289° |
| 2026-04-25 17:31 | 53.94484 | -3.75301 | 32218 ft | 393 kts | 289° |
| 2026-04-25 17:32 | 53.96495 | -3.83913 | 32213 ft | 393 kts | 297° |
| 2026-04-25 17:32 | 53.99215 | -3.91979 | 32206 ft | 393 kts | 298° |
| 2026-04-25 17:33 | 54.01942 | -4.00045 | 32200 ft | 393 kts | 298° |
| 2026-04-25 17:33 | 54.04669 | -4.08141 | 32179 ft | 393 kts | 298° |
| 2026-04-25 17:34 | 54.06016 | -4.12143 | 31801 ft | 387 kts | 299° |
| 2026-04-25 17:34 | 54.07521 | -4.15919 | 31364 ft | 384 kts | 303° |
| 2026-04-25 17:34 | 54.09055 | -4.19615 | 30922 ft | 380 kts | 303° |
| 2026-04-25 17:34 | 54.10575 | -4.23277 | 30501 ft | 377 kts | 303° |
| 2026-04-25 17:35 | 54.12076 | -4.26903 | 30048 ft | 372 kts | 303° |
| 2026-04-25 17:35 | 54.13560 | -4.30495 | 29550 ft | 369 kts | 303° |
| 2026-04-25 17:35 | 54.15033 | -4.34058 | 29046 ft | 366 kts | 303° |
| 2026-04-25 17:35 | 54.16493 | -4.37592 | 28546 ft | 363 kts | 303° |
| 2026-04-25 17:36 | 54.17924 | -4.41060 | 28049 ft | 361 kts | 303° |
| 2026-04-25 17:36 | 54.19361 | -4.44561 | 27557 ft | 359 kts | 303° |
| 2026-04-25 17:36 | 54.20786 | -4.48044 | 27086 ft | 357 kts | 303° |
| 2026-04-25 17:36 | 54.22201 | -4.51509 | 26622 ft | 354 kts | 302° |
| 2026-04-25 17:37 | 54.23606 | -4.54952 | 26185 ft | 352 kts | 302° |
| 2026-04-25 17:37 | 54.25003 | -4.58368 | 25740 ft | 350 kts | 303° |
| 2026-04-25 17:37 | 54.26392 | -4.61765 | 25304 ft | 348 kts | 303° |
| 2026-04-25 17:37 | 54.27772 | -4.65145 | 24871 ft | 345 kts | 303° |
| 2026-04-25 17:38 | 54.29142 | -4.68508 | 24439 ft | 343 kts | 302° |
| 2026-04-25 17:38 | 54.30043 | -4.70722 | 24158 ft | 342 kts | 302° |
| 2026-04-25 17:38 | 54.31854 | -4.75181 | 23555 ft | 340 kts | 302° |
| 2026-04-25 17:38 | 54.33198 | -4.78496 | 23097 ft | 337 kts | 302° |
| 2026-04-25 17:39 | 54.34531 | -4.81791 | 22647 ft | 335 kts | 302° |
| 2026-04-25 17:39 | 54.35854 | -4.85065 | 22204 ft | 333 kts | 302° |
| 2026-04-25 17:39 | 54.37172 | -4.88324 | 21772 ft | 331 kts | 302° |
| 2026-04-25 17:39 | 54.38482 | -4.91572 | 21148 ft | 335 kts | 302° |
| 2026-04-25 17:40 | 54.39828 | -4.94924 | 20335 ft | 346 kts | 302° |
| 2026-04-25 17:40 | 54.41195 | -4.98333 | 19786 ft | 346 kts | 302° |
| 2026-04-25 17:40 | 54.42552 | -5.01710 | 19036 ft | 342 kts | 302° |
| 2026-04-25 17:40 | 54.43898 | -5.05064 | 18241 ft | 339 kts | 302° |
| 2026-04-25 17:41 | 54.45231 | -5.08387 | 17389 ft | 337 kts | 302° |
| 2026-04-25 17:41 | 54.46560 | -5.11681 | 16579 ft | 334 kts | 302° |
| 2026-04-25 17:41 | 54.47885 | -5.14951 | 15798 ft | 332 kts | 302° |
| 2026-04-25 17:41 | 54.49202 | -5.18198 | 15047 ft | 330 kts | 302° |
| 2026-04-25 17:42 | 54.50546 | -5.21379 | 14309 ft | 329 kts | 309° |
| 2026-04-25 17:42 | 54.52239 | -5.24021 | 13549 ft | 329 kts | 320° |
| 2026-04-25 17:42 | 54.54033 | -5.26439 | 12770 ft | 326 kts | 320° |
| 2026-04-25 17:42 | 54.55807 | -5.28840 | 12036 ft | 323 kts | 320° |
| 2026-04-25 17:43 | 54.57560 | -5.31220 | 11312 ft | 319 kts | 320° |
| 2026-04-25 17:43 | 54.59293 | -5.33582 | 10617 ft | 316 kts | 320° |
| 2026-04-25 17:43 | 54.60982 | -5.35885 | 9964 ft | 311 kts | 320° |
| 2026-04-25 17:43 | 54.62639 | -5.38142 | 9553 ft | 297 kts | 320° |
| 2026-04-25 17:44 | 54.64244 | -5.40329 | 8957 ft | 291 kts | 320° |
| 2026-04-25 17:44 | 54.65827 | -5.42490 | 8273 ft | 289 kts | 320° |
| 2026-04-25 17:44 | 54.67393 | -5.44632 | 7637 ft | 286 kts | 320° |
| 2026-04-25 17:44 | 54.68940 | -5.46754 | 7014 ft | 282 kts | 319° |
| 2026-04-25 17:45 | 54.70466 | -5.48851 | 6366 ft | 278 kts | 320° |
| 2026-04-25 17:45 | 54.70977 | -5.49554 | 6146 ft | 277 kts | 320° |
| 2026-04-25 17:45 | 54.73436 | -5.52937 | 5351 ft | 259 kts | 320° |
| 2026-04-25 17:45 | 54.74787 | -5.54799 | 5185 ft | 239 kts | 320° |
| 2026-04-25 17:46 | 54.76089 | -5.56597 | 4543 ft | 241 kts | 320° |
| 2026-04-25 17:46 | 54.77399 | -5.58409 | 3983 ft | 239 kts | 319° |
| 2026-04-25 17:46 | 54.78580 | -5.60304 | 3663 ft | 225 kts | 304° |
| 2026-04-25 17:46 | 54.79208 | -5.62697 | 3328 ft | 215 kts | 278° |
| 2026-04-25 17:47 | 54.79106 | -5.65214 | 2996 ft | 208 kts | 249° |
| 2026-04-25 17:47 | 54.78359 | -5.67272 | 2675 ft | 200 kts | 221° |
| 2026-04-25 17:47 | 54.77261 | -5.68676 | 2354 ft | 199 kts | 212° |
| 2026-04-25 17:47 | 54.76100 | -5.70074 | 2063 ft | 202 kts | 213° |
| 2026-04-25 17:48 | 54.73906 | -5.72721 | 2017 ft | 184 kts | 213° |
| 2026-04-25 17:48 | 54.72858 | -5.73984 | 2013 ft | 183 kts | 213° |
| 2026-04-25 17:48 | 54.71818 | -5.75236 | 2018 ft | 182 kts | 212° |
| 2026-04-25 17:49 | 54.70783 | -5.76481 | 1948 ft | 181 kts | 213° |
| 2026-04-25 17:49 | 54.69751 | -5.77722 | 1752 ft | 178 kts | 212° |
| 2026-04-25 17:49 | 54.68781 | -5.78891 | 1536 ft | 162 kts | 212° |
| 2026-04-25 17:49 | 54.67886 | -5.79967 | 1321 ft | 152 kts | 211° |
| 2026-04-25 17:50 | 54.67034 | -5.80990 | 1122 ft | 147 kts | 211° |
| 2026-04-25 17:50 | 54.66221 | -5.81965 | 947 ft | 142 kts | 211° |
| 2026-04-25 17:50 | 54.65417 | -5.82929 | 745 ft | 139 kts | 212° |
| 2026-04-25 17:50 | 54.64620 | -5.83883 | 568 ft | 140 kts | 210° |
| 2026-04-25 17:51 | 54.63827 | -5.84834 | 385 ft | 138 kts | 211° |
| 2026-04-25 17:51 | 54.63039 | -5.85777 | 204 ft | 138 kts | 212° |
| 2026-04-25 17:51 | 54.62253 | -5.86717 | 25 ft | 135 kts | 213° |
| 2026-04-25 17:51 | 54.61656 | -5.87418 | 17 ft | 46 kts | 216° |
| 2026-04-25 17:52 | 54.61470 | -5.87642 | 13 ft | 24 kts | 214° |
| 2026-04-25 17:52 | 54.61424 | -5.87697 | 12 ft | 24 kts | 214° |
| 2026-04-25 17:52 | 54.61272 | -5.87694 | 15 ft | 12 kts | 127° |
| 2026-04-25 17:52 | 54.61265 | -5.87603 | 17 ft | 7 kts | 69° |
| 2026-04-25 17:53 | 54.61272 | -5.87589 | 18 ft | 0 kts | 49° |
| 2026-04-25 17:54 | 54.61272 | -5.87588 | 18 ft | 1 kts | 49° |
| 2026-04-25 17:54 | 54.61327 | -5.87495 | 20 ft | 22 kts | 34° |
| 2026-04-25 17:54 | 54.61411 | -5.87376 | 21 ft | 13 kts | 42° |
| 2026-04-25 17:55 | 54.61479 | -5.87287 | 21 ft | 12 kts | 34° |
| 2026-04-25 17:55 | 54.61507 | -5.87241 | 21 ft | 1 kts | 73° |
| 2026-04-25 17:55 | 54.61503 | -5.87234 | 21 ft | 0 kts | 119° |
| 2026-04-25 17:55 | 54.61482 | -5.87207 | 21 ft | 6 kts | 150° |
| 2026-04-25 17:56 | 54.61468 | -5.87194 | 21 ft | 0 kts | 153° |
| 2026-04-25 17:56 | 54.61465 | -5.87191 | 21 ft | 0 kts | 153° |
| 2026-04-25 17:56 | 54.61462 | -5.87188 | 21 ft | 0 kts | 153° |